Time;durP1;ratioP1;P1;durP2;ratioP2;P2;SDS_P1;SDS_P2;PMS_P1;PMS_P2;Temp;Humidity;BMP_temperature;BMP_pressure;BME280_temperature;BME280_humidity;BME280_pressure;Samples;Min_cycle;Max_cycle;Signal;HPM_P1;HPM_P2
2023/12/03 00:01:08;;;;;;;43.63;21.33;;;;;;;-2.72;100.00;101122.69;7393251;19;20028;-67
2023/12/03 00:03:37;;;;;;;50.22;22.48;;;;;;;-2.73;100.00;101121.84;7392911;19;20070;-68
2023/12/03 00:06:06;;;;;;;47.17;20.15;;;;;;;-2.74;100.00;101117.50;7400856;19;20070;-67
2023/12/03 00:08:34;;;;;;;44.40;21.15;;;;;;;-2.76;100.00;101121.69;7397912;19;20432;-68
2023/12/03 00:11:02;;;;;;;44.60;21.95;;;;;;;-2.76;100.00;101121.69;7398214;19;20094;-68
2023/12/03 00:13:31;;;;;;;47.03;21.40;;;;;;;-2.76;100.00;101120.84;7397692;19;20078;-67
2023/12/03 00:15:59;;;;;;;44.45;21.75;;;;;;;-2.75;100.00;101126.03;7400073;19;20391;-67
2023/12/03 00:18:31;;;;;;;47.88;21.55;;;;;;;-2.75;100.00;101131.16;7400592;19;20031;-68
2023/12/03 00:21:00;;;;;;;42.78;20.50;;;;;;;-2.77;100.00;101132.78;7397528;19;20540;-68
2023/12/03 00:23:29;;;;;;;51.83;23.65;;;;;;;-2.76;100.00;101137.09;7398839;19;20107;-67
2023/12/03 00:25:57;;;;;;;44.22;21.52;;;;;;;-2.76;100.00;101143.94;7399264;19;20022;-67
2023/12/03 00:28:25;;;;;;;48.10;23.45;;;;;;;-2.76;100.00;101146.50;7399912;19;20027;-67
2023/12/03 00:30:54;;;;;;;51.53;23.67;;;;;;;-2.76;100.00;101141.38;7397981;19;20094;-67
2023/12/03 00:33:22;;;;;;;46.70;21.48;;;;;;;-2.75;100.00;101148.28;7399028;19;20085;-67
2023/12/03 00:35:53;;;;;;;51.17;23.85;;;;;;;-2.77;100.00;101145.63;7399934;19;20015;-68
2023/12/03 00:38:22;;;;;;;44.75;21.90;;;;;;;-2.78;100.00;101147.31;7400075;19;20098;-68
2023/12/03 00:40:50;;;;;;;47.65;22.85;;;;;;;-2.78;100.00;101152.47;7397310;19;20031;-67
2023/12/03 00:43:18;;;;;;;47.80;22.17;;;;;;;-2.78;100.00;101162.72;7396920;19;20030;-67
2023/12/03 00:45:47;;;;;;;45.67;22.50;;;;;;;-2.77;100.00;101150.75;7399550;19;20077;-68
2023/12/03 00:48:15;;;;;;;50.63;21.98;;;;;;;-2.77;100.00;101150.75;7399168;19;20019;-67
2023/12/03 00:50:44;;;;;;;46.47;21.67;;;;;;;-2.76;100.00;101156.78;7397311;19;20410;-67
2023/12/03 00:53:15;;;;;;;45.03;21.30;;;;;;;-2.76;100.00;101156.78;7398619;19;20090;-68
2023/12/03 00:55:43;;;;;;;48.42;22.13;;;;;;;-2.74;100.00;101165.41;7398848;19;20560;-67
2023/12/03 00:58:12;;;;;;;43.80;21.25;;;;;;;-2.75;100.00;101163.69;7399109;19;20062;-67
2023/12/03 01:00:40;;;;;;;43.42;21.45;;;;;;;-2.75;100.00;101168.81;7398661;19;20514;-68
2023/12/03 01:03:08;;;;;;;51.00;23.77;;;;;;;-2.74;100.00;101181.72;7398380;19;20014;-68
2023/12/03 01:05:37;;;;;;;49.85;23.45;;;;;;;-2.75;100.00;101185.09;7396688;19;20070;-68
2023/12/03 01:08:06;;;;;;;49.60;24.00;;;;;;;-2.75;100.00;101185.09;7398592;19;20082;-68
2023/12/03 01:10:37;;;;;;;46.83;22.05;;;;;;;-2.75;100.00;101186.78;7397049;19;20078;-68
2023/12/03 01:13:05;;;;;;;52.03;23.58;;;;;;;-2.74;100.00;101192.00;7397763;19;20543;-68
2023/12/03 01:15:33;;;;;;;50.47;22.80;;;;;;;-2.74;100.00;101198.81;7396505;19;20007;-68
2023/12/03 01:18:02;;;;;;;48.42;24.63;;;;;;;-2.73;100.00;101198.88;7398181;19;20074;-68
2023/12/03 01:20:30;;;;;;;47.35;22.75;;;;;;;-2.73;100.00;101200.56;7398415;19;20149;-68
2023/12/03 01:22:59;;;;;;;52.10;23.45;;;;;;;-2.73;100.00;101205.69;7395835;19;20544;-67
2023/12/03 01:25:27;;;;;;;45.78;22.23;;;;;;;-2.74;100.00;101212.53;7398200;19;20082;-67
2023/12/03 01:27:58;;;;;;;50.33;23.67;;;;;;;-2.73;100.00;101209.16;7395953;19;20086;-67
2023/12/03 01:30:27;;;;;;;48.35;22.23;;;;;;;-2.72;100.00;101215.16;7397129;19;20485;-67
2023/12/03 01:32:55;;;;;;;53.10;24.08;;;;;;;-2.72;100.00;101213.44;7397439;19;20029;-67
2023/12/03 01:35:24;;;;;;;48.58;23.63;;;;;;;-2.69;100.00;101228.09;7397813;19;20079;-68
2023/12/03 01:37:52;;;;;;;55.30;24.20;;;;;;;-2.70;100.00;101219.53;7397906;19;20423;-67
2023/12/03 01:40:27;;;;;;;50.75;23.33;;;;;;;-2.69;100.00;101221.31;7397703;19;20066;-66
2023/12/03 01:42:58;;;;;;;44.33;22.88;;;;;;;-2.69;100.00;101225.53;7396120;19;20101;-67
2023/12/03 01:45:26;;;;;;;55.80;24.00;;;;;;;-2.68;100.00;101235.00;7397266;19;20071;-66
2023/12/03 01:47:55;;;;;;;50.70;23.33;;;;;;;-2.68;100.00;101228.19;7397138;19;20023;-66
2023/12/03 01:50:25;;;;;;;45.90;22.85;;;;;;;-2.67;100.00;101234.19;7396164;19;20427;-66
2023/12/03 01:52:53;;;;;;;49.95;22.55;;;;;;;-2.67;100.00;101236.78;7397020;19;20476;-66
2023/12/03 01:55:23;;;;;;;49.83;22.42;;;;;;;-2.67;100.00;101240.19;7397885;19;20074;-66
2023/12/03 01:57:51;;;;;;;52.17;23.55;;;;;;;-2.66;100.00;101246.22;7397223;19;20035;-67
2023/12/03 02:00:22;;;;;;;45.75;21.67;;;;;;;-2.67;100.00;101245.34;7397149;19;20078;-67
2023/12/03 02:02:51;;;;;;;53.72;22.63;;;;;;;-2.67;100.00;101242.78;7397124;19;20070;-67
2023/12/03 02:05:19;;;;;;;47.45;22.92;;;;;;;-2.67;100.00;101244.47;7396888;19;20082;-67
2023/12/03 02:07:48;;;;;;;50.92;23.17;;;;;;;-2.66;100.00;101254.81;7397039;19;20086;-67
2023/12/03 02:10:16;;;;;;;44.08;21.70;;;;;;;-2.65;100.00;101253.13;7396223;19;20074;-67
2023/12/03 02:12:45;;;;;;;48.88;22.83;;;;;;;-2.64;100.00;101252.31;7396431;19;20014;-67
2023/12/03 02:15:13;;;;;;;51.95;22.25;;;;;;;-2.64;100.00;101255.75;7396646;19;20062;-67
2023/12/03 02:17:44;;;;;;;48.33;21.33;;;;;;;-2.64;100.00;101254.88;7396533;19;20035;-67
2023/12/03 02:20:14;;;;;;;52.65;23.05;;;;;;;-2.64;100.00;101254.88;7395174;19;20066;-67
2023/12/03 02:23:00;;;;;;;46.42;23.38;;;;;;;-2.67;100.00;101253.03;7396101;19;20070;-67
2023/12/03 02:25:28;;;;;;;50.05;23.35;;;;;;;-2.63;100.00;101259.19;7394700;19;20026;-67
2023/12/03 02:28:03;;;;;;;47.88;21.95;;;;;;;-2.63;100.00;101256.63;7392764;19;20078;-67
2023/12/03 02:30:32;;;;;;;44.33;22.75;;;;;;;-2.63;100.00;101256.63;7395002;19;20078;-67
2023/12/03 02:33:00;;;;;;;50.65;22.90;;;;;;;-2.64;100.00;101257.47;7395323;19;20427;-67
2023/12/03 02:35:29;;;;;;;49.10;22.60;;;;;;;-2.64;100.00;101255.75;7395657;19;20476;-68
2023/12/03 02:38:00;;;;;;;49.80;23.42;;;;;;;-2.63;100.00;101260.09;7395942;19;20074;-67
2023/12/03 02:40:28;;;;;;;46.72;22.13;;;;;;;-2.63;100.00;101256.63;7395614;19;20071;-67
2023/12/03 02:42:57;;;;;;;47.92;23.58;;;;;;;-2.63;100.00;101256.63;7395401;19;20019;-67
2023/12/03 02:45:25;;;;;;;48.70;24.70;;;;;;;-2.63;100.00;101257.50;7395707;19;20018;-67
2023/12/03 02:47:54;;;;;;;50.47;23.15;;;;;;;-2.63;100.00;101259.19;7395202;19;20444;-67
2023/12/03 02:50:22;;;;;;;42.88;21.33;;;;;;;-2.62;100.00;101269.56;7393729;19;20091;-67
2023/12/03 02:52:51;;;;;;;47.22;21.85;;;;;;;-2.63;100.00;101264.31;7395286;19;20095;-67
2023/12/03 02:55:22;;;;;;;44.72;21.08;;;;;;;-2.65;100.00;101264.28;7395029;19;20509;-67
2023/12/03 02:57:50;;;;;;;51.72;22.70;;;;;;;-2.63;100.00;101266.91;7394411;19;20018;-72
2023/12/03 03:00:19;;;;;;;42.65;20.83;;;;;;;-2.64;100.00;101265.16;7395800;19;20010;-70
2023/12/03 03:02:48;;;;;;;47.25;22.20;;;;;;;-2.65;100.00;101273.69;7394566;19;20526;-68
2023/12/03 03:05:16;;;;;;;48.88;20.75;;;;;;;-2.66;100.00;101272.78;7395173;19;20098;-67
2023/12/03 03:07:45;;;;;;;47.55;20.63;;;;;;;-2.67;100.00;101283.88;7394764;19;20509;-67
2023/12/03 03:10:13;;;;;;;47.03;21.00;;;;;;;-2.70;100.00;101276.06;7394698;19;20070;-67
2023/12/03 03:12:44;;;;;;;54.25;23.77;;;;;;;-2.70;100.00;101281.19;7394327;19;20086;-67
2023/12/03 03:15:13;;;;;;;45.30;21.27;;;;;;;-2.69;100.00;101295.78;7395293;19;20074;-67
2023/12/03 03:17:41;;;;;;;41.90;20.75;;;;;;;-2.69;100.00;101288.09;7395225;19;20011;-67
2023/12/03 03:20:11;;;;;;;43.55;19.85;;;;;;;-2.68;100.00;101295.00;7394246;19;20082;-67
2023/12/03 03:22:39;;;;;;;44.22;21.15;;;;;;;-2.67;100.00;101290.72;7392726;19;20074;-67
2023/12/03 03:25:09;;;;;;;43.15;20.80;;;;;;;-2.66;100.00;101293.34;7394559;19;20086;-67
2023/12/03 03:27:44;;;;;;;49.08;19.88;;;;;;;-2.65;100.00;101296.81;7392517;19;20086;-67
2023/12/03 03:30:21;;;;;;;41.13;18.20;;;;;;;-2.65;100.00;101291.66;7393909;19;20006;-67
2023/12/03 03:32:50;;;;;;;38.13;18.70;;;;;;;-2.65;100.00;101302.81;7394177;19;20078;-66
2023/12/03 03:35:18;;;;;;;44.53;20.45;;;;;;;-2.65;100.00;101296.81;7394529;19;20014;-66
2023/12/03 03:37:47;;;;;;;42.95;19.55;;;;;;;-2.64;100.00;101296.84;7394326;19;20015;-66
2023/12/03 03:40:15;;;;;;;38.42;18.17;;;;;;;-2.62;100.00;101302.06;7396893;19;20082;-66
2023/12/03 03:42:44;;;;;;;36.83;18.35;;;;;;;-2.61;100.00;101298.66;7401253;19;20027;-66
2023/12/03 03:45:12;;;;;;;36.63;18.83;;;;;;;-2.60;100.00;101292.72;7401105;19;20081;-66
2023/12/03 03:47:43;;;;;;;36.55;18.10;;;;;;;-2.59;100.00;101291.91;7398894;19;20078;-67
2023/12/03 03:50:12;;;;;;;39.95;19.10;;;;;;;-2.58;100.00;101296.22;7401146;19;20353;-67
2023/12/03 03:52:41;;;;;;;39.58;18.58;;;;;;;-2.58;100.00;101296.22;7401357;19;20074;-66
2023/12/03 03:55:10;;;;;;;41.78;20.35;;;;;;;-2.56;100.00;101296.31;7401254;19;20082;-66
2023/12/03 03:57:38;;;;;;;38.50;19.30;;;;;;;-2.55;100.00;101298.03;7398478;19;20074;-67
2023/12/03 04:00:08;;;;;;;37.80;18.92;;;;;;;-2.55;100.00;101304.06;7401181;19;20070;-67
2023/12/03 04:02:37;;;;;;;36.40;18.08;;;;;;;-2.54;100.00;101302.38;7400343;19;20545;-67
2023/12/03 04:05:09;;;;;;;35.40;18.17;;;;;;;-2.55;100.00;101293.78;7400888;19;20035;-67
2023/12/03 04:07:38;;;;;;;38.85;19.60;;;;;;;-2.52;100.00;101298.16;7401365;19;20070;-67
2023/12/03 04:10:07;;;;;;;32.22;16.40;;;;;;;-2.52;100.00;101299.03;7400843;19;20375;-67
2023/12/03 04:12:36;;;;;;;33.38;17.83;;;;;;;-2.52;100.00;101308.44;7398016;19;20014;-66
2023/12/03 04:15:05;;;;;;;35.92;17.42;;;;;;;-2.51;100.00;101305.06;7401500;19;20003;-66
2023/12/03 04:17:33;;;;;;;32.25;16.88;;;;;;;-2.51;100.00;101300.78;7400519;19;20078;-66
2023/12/03 04:20:02;;;;;;;36.25;18.63;;;;;;;-2.49;100.00;101303.41;7400494;19;20073;-67
2023/12/03 04:22:33;;;;;;;40.05;19.20;;;;;;;-2.48;100.00;101308.66;7400239;19;20015;-67
2023/12/03 04:25:02;;;;;;;33.47;16.98;;;;;;;-2.49;100.00;101306.88;7399996;19;20552;-67
2023/12/03 04:27:30;;;;;;;34.47;17.23;;;;;;;-2.48;100.00;101310.31;7397396;19;20090;-67
2023/12/03 04:29:59;;;;;;;38.95;19.08;;;;;;;-2.47;100.00;101312.09;7400175;19;20423;-67
2023/12/03 04:32:27;;;;;;;35.65;18.35;;;;;;;-2.48;100.00;101312.88;7397790;19;20010;-67
2023/12/03 04:34:55;;;;;;;38.47;19.25;;;;;;;-2.48;100.00;101310.31;7400094;19;20010;-66
2023/12/03 04:37:24;;;;;;;31.85;16.73;;;;;;;-2.49;100.00;101309.47;7399554;19;20074;-66
2023/12/03 04:39:55;;;;;;;35.42;17.58;;;;;;;-2.50;100.00;101311.97;7397021;19;20023;-66
2023/12/03 04:42:24;;;;;;;33.78;17.73;;;;;;;-2.52;100.00;101311.03;7396974;19;20006;-66
2023/12/03 04:44:52;;;;;;;37.10;19.13;;;;;;;-2.53;100.00;101320.41;7396937;19;20444;-66
2023/12/03 04:47:21;;;;;;;35.03;18.60;;;;;;;-2.55;100.00;101314.34;7397262;19;20074;-66
2023/12/03 04:49:49;;;;;;;37.55;18.13;;;;;;;-2.56;100.00;101328.00;7399034;19;20070;-66
2023/12/03 04:52:18;;;;;;;33.15;18.48;;;;;;;-2.56;100.00;101329.69;7396682;19;20014;-66
2023/12/03 04:54:46;;;;;;;31.95;17.40;;;;;;;-2.56;100.00;101329.69;7396983;19;20032;-66
2023/12/03 04:57:17;;;;;;;30.48;16.17;;;;;;;-2.61;100.00;101334.63;7398856;19;20514;-66
2023/12/03 04:59:45;;;;;;;35.05;17.55;;;;;;;-2.56;100.00;101345.13;7398783;19;20494;-66
2023/12/03 05:02:14;;;;;;;33.03;17.38;;;;;;;-2.56;100.00;101345.13;7399068;19;20035;-66
2023/12/03 05:04:42;;;;;;;36.25;17.52;;;;;;;-2.57;100.00;101349.34;7396250;19;20018;-66
2023/12/03 05:07:11;;;;;;;34.97;17.27;;;;;;;-2.56;100.00;101347.69;7398549;19;20023;-66
2023/12/03 05:09:41;;;;;;;32.80;16.90;;;;;;;-2.56;100.00;101347.69;7397979;19;20478;-66
2023/12/03 05:12:10;;;;;;;34.17;17.42;;;;;;;-2.56;100.00;101350.25;7397763;19;20014;-66
2023/12/03 05:14:41;;;;;;;34.10;17.88;;;;;;;-2.55;100.00;101350.31;7396485;19;20027;-66
2023/12/03 05:17:10;;;;;;;33.42;16.85;;;;;;;-2.55;100.00;101352.88;7398349;19;20419;-66
2023/12/03 05:19:38;;;;;;;32.25;17.98;;;;;;;-2.55;100.00;101362.25;7398571;19;20014;-66
2023/12/03 05:22:06;;;;;;;31.17;16.85;;;;;;;-2.55;100.00;101362.25;7398438;19;20068;-67
2023/12/03 05:24:35;;;;;;;32.42;16.60;;;;;;;-2.56;100.00;101357.97;7396544;19;20018;-66
2023/12/03 05:27:03;;;;;;;34.33;17.50;;;;;;;-2.54;100.00;101361.47;7395533;19;20552;-66
2023/12/03 05:29:32;;;;;;;33.65;17.02;;;;;;;-2.54;100.00;101364.91;7398491;19;20014;-66
2023/12/03 05:32:03;;;;;;;35.10;16.88;;;;;;;-2.54;100.00;101364.91;7396121;19;20070;-67
2023/12/03 05:34:31;;;;;;;34.28;16.77;;;;;;;-2.53;100.00;101376.06;7396249;19;20014;-66
2023/12/03 05:37:00;;;;;;;28.45;15.73;;;;;;;-2.53;100.00;101379.50;7397815;19;20434;-66
2023/12/03 05:39:29;;;;;;;34.03;17.17;;;;;;;-2.54;100.00;101382.00;7395931;19;20036;-67
2023/12/03 05:41:57;;;;;;;33.03;16.67;;;;;;;-2.55;100.00;101385.38;7397789;19;20078;-67
2023/12/03 05:44:32;;;;;;;29.25;16.23;;;;;;;-2.56;100.00;101381.09;7395526;19;20014;-67
2023/12/03 05:47:04;;;;;;;30.52;16.15;;;;;;;-2.57;100.00;101393.03;7397216;19;20419;-66
2023/12/03 05:49:32;;;;;;;29.33;15.35;;;;;;;-2.58;100.00;101387.84;7397934;19;20018;-66
2023/12/03 05:52:00;;;;;;;28.83;16.02;;;;;;;-2.58;100.00;101392.97;7396508;19;20025;-66
2023/12/03 05:54:29;;;;;;;32.35;16.13;;;;;;;-2.58;100.00;101387.84;7395742;19;20017;-66
2023/12/03 05:56:57;;;;;;;28.92;16.23;;;;;;;-2.59;100.00;101391.22;7395087;19;20070;-66
2023/12/03 05:59:26;;;;;;;34.03;16.30;;;;;;;-2.59;100.00;101394.69;7397069;19;20031;-66
2023/12/03 06:01:54;;;;;;;33.00;17.27;;;;;;;-2.59;100.00;101394.69;7395852;19;20017;-66
2023/12/03 06:04:25;;;;;;;31.08;15.52;;;;;;;-2.60;100.00;101400.63;7395114;19;20031;-66
2023/12/03 06:06:54;;;;;;;30.40;15.77;;;;;;;-2.60;100.00;101395.50;7396607;19;20011;-66
2023/12/03 06:09:22;;;;;;;28.48;15.48;;;;;;;-2.62;100.00;101392.88;7394656;19;20410;-66
2023/12/03 06:11:51;;;;;;;29.33;16.42;;;;;;;-2.62;100.00;101397.09;7395766;19;20018;-66
2023/12/03 06:14:19;;;;;;;28.48;15.52;;;;;;;-2.63;100.00;101396.25;7394830;19;20014;-67
2023/12/03 06:16:48;;;;;;;25.80;15.35;;;;;;;-2.64;100.00;101397.06;7396658;19;20010;-67
2023/12/03 06:19:17;;;;;;;37.35;18.45;;;;;;;-2.64;100.00;101391.03;7395994;19;20428;-66
2023/12/03 06:21:48;;;;;;;46.55;22.90;;;;;;;-2.63;100.00;101390.22;7396378;19;20070;-66
2023/12/03 06:24:16;;;;;;;47.75;23.95;;;;;;;-2.63;100.00;101400.47;7395245;19;20018;-67
2023/12/03 06:26:45;;;;;;;55.63;25.23;;;;;;;-2.63;100.00;101397.91;7395807;19;20435;-67
2023/12/03 06:29:13;;;;;;;52.72;26.15;;;;;;;-2.63;100.00;101400.47;7394636;19;20019;-66
2023/12/03 06:31:41;;;;;;;29.65;17.20;;;;;;;-2.64;100.00;101393.63;7395313;19;20010;-67
2023/12/03 06:34:11;;;;;;;31.40;16.95;;;;;;;-2.64;100.00;101403.88;7394887;19;20015;-66
2023/12/03 06:36:40;;;;;;;29.90;16.80;;;;;;;-2.64;100.00;101404.75;7395695;19;20029;-67
2023/12/03 06:39:11;;;;;;;30.38;16.45;;;;;;;-2.65;100.00;101414.97;7396104;19;20019;-66
2023/12/03 06:41:40;;;;;;;32.33;17.80;;;;;;;-2.66;100.00;101416.66;7395412;19;20473;-66
2023/12/03 06:44:09;;;;;;;36.38;17.88;;;;;;;-2.67;100.00;101414.03;7394028;19;20018;-67
2023/12/03 06:46:43;;;;;;;29.10;15.95;;;;;;;-2.66;100.00;101418.34;7395573;19;20023;-66
2023/12/03 06:49:13;;;;;;;34.15;18.10;;;;;;;-2.68;100.00;101420.84;7394999;19;20010;-66
2023/12/03 06:51:41;;;;;;;31.73;17.33;;;;;;;-2.67;100.00;101424.28;7395179;19;20023;-67
2023/12/03 06:54:12;;;;;;;31.17;17.23;;;;;;;-2.68;100.00;101436.28;7393903;19;20019;-67
2023/12/03 06:56:41;;;;;;;30.23;17.05;;;;;;;-2.68;100.00;101430.25;7395708;19;20028;-67
2023/12/03 06:59:10;;;;;;;28.85;16.15;;;;;;;-2.70;100.00;101430.19;7395650;19;20027;-67
2023/12/03 07:01:38;;;;;;;31.10;16.40;;;;;;;-2.72;100.00;101430.94;7395286;19;20018;-66
2023/12/03 07:04:06;;;;;;;31.20;17.58;;;;;;;-2.74;100.00;101440.25;7393777;19;20031;-67
2023/12/03 07:06:35;;;;;;;30.35;16.63;;;;;;;-2.76;100.00;101444.47;7394968;19;20019;-66
2023/12/03 07:09:04;;;;;;;30.45;16.08;;;;;;;-2.79;100.00;101446.06;7395247;19;20011;-66
2023/12/03 07:11:35;;;;;;;31.25;17.50;;;;;;;-2.81;100.00;101450.25;7394339;19;20017;-67
2023/12/03 07:14:03;;;;;;;33.90;18.95;;;;;;;-2.83;100.00;101457.03;7395232;19;20019;-67
2023/12/03 07:16:32;;;;;;;31.98;17.48;;;;;;;-2.85;100.00;101456.06;7402265;19;20077;-66
2023/12/03 07:19:00;;;;;;;32.25;15.63;;;;;;;-2.86;100.00;101462.00;7402543;19;20023;-66
2023/12/03 07:21:29;;;;;;;29.75;17.05;;;;;;;-2.86;100.00;101466.28;7402811;19;20035;-66
2023/12/03 07:23:57;;;;;;;30.60;15.40;;;;;;;-2.87;100.00;101473.13;7399405;19;20073;-67
2023/12/03 07:26:26;;;;;;;30.70;16.42;;;;;;;-2.88;100.00;101471.34;7402287;19;20015;-67
2023/12/03 07:28:57;;;;;;;31.65;17.73;;;;;;;-2.87;100.00;101467.09;7397993;19;20027;-67
2023/12/03 07:31:25;;;;;;;30.38;18.42;;;;;;;-2.88;100.00;101471.34;7399514;19;20031;-67
2023/12/03 07:33:53;;;;;;;31.83;17.58;;;;;;;-2.86;100.00;101472.28;7397792;19;20018;-67
2023/12/03 07:36:22;;;;;;;34.05;18.15;;;;;;;-2.86;100.00;101479.97;7397210;19;20019;-67
2023/12/03 07:38:50;;;;;;;31.77;18.15;;;;;;;-2.86;100.00;101474.84;7398854;19;20098;-66
2023/12/03 07:41:19;;;;;;;30.40;16.75;;;;;;;-2.86;100.00;101487.69;7399077;19;20035;-67
2023/12/03 07:43:47;;;;;;;34.90;18.02;;;;;;;-2.84;100.00;101482.66;7397654;19;20014;-66
2023/12/03 07:46:25;;;;;;;31.60;18.25;;;;;;;-2.81;100.00;101487.91;7398483;19;20027;-66
2023/12/03 07:48:53;;;;;;;34.63;18.25;;;;;;;-2.80;100.00;101481.97;7398482;19;20493;-66
2023/12/03 07:51:22;;;;;;;34.20;19.30;;;;;;;-2.79;100.00;101482.03;7398375;19;20011;-67
2023/12/03 07:53:50;;;;;;;33.15;17.48;;;;;;;-2.76;100.00;101486.41;7396791;19;20014;-67
2023/12/03 07:56:19;;;;;;;31.70;17.25;;;;;;;-2.74;100.00;101486.47;7395980;19;20381;-67
2023/12/03 07:58:47;;;;;;;31.40;17.88;;;;;;;-2.71;100.00;101490.06;7398479;19;20011;-66
2023/12/03 08:01:16;;;;;;;36.28;19.40;;;;;;;-2.69;100.00;101483.31;7396372;19;20015;-67
2023/12/03 08:03:47;;;;;;;34.83;18.75;;;;;;;-2.66;100.00;101482.56;7397214;19;20122;-66
2023/12/03 08:06:15;;;;;;;37.72;21.00;;;;;;;-2.63;100.00;101487.84;7398827;19;20015;-66
2023/12/03 08:08:50;;;;;;;38.55;20.45;;;;;;;-2.58;100.00;101488.03;7398049;19;20078;-66
2023/12/03 08:11:18;;;;;;;35.55;19.92;;;;;;;-2.57;100.00;101477.81;7397801;19;20011;-66
2023/12/03 08:13:47;;;;;;;33.85;18.98;;;;;;;-2.54;100.00;101488.25;7395593;19;20019;-66
2023/12/03 08:16:15;;;;;;;32.63;17.92;;;;;;;-2.52;100.00;101490.88;7398004;19;20086;-66
2023/12/03 08:18:47;;;;;;;32.17;17.10;;;;;;;-2.51;100.00;101500.34;7397542;19;20016;-66
2023/12/03 08:21:15;;;;;;;34.45;18.50;;;;;;;-2.50;100.00;101495.28;7398222;19;20082;-67
2023/12/03 08:23:44;;;;;;;44.78;26.77;;;;;;;-2.47;100.00;101497.09;7396423;19;20051;-68
2023/12/03 08:26:13;;;;;;;40.42;23.60;;;;;;;-2.46;100.00;101498.88;7396706;19;20390;-66
2023/12/03 08:28:47;;;;;;;42.20;21.45;;;;;;;-2.46;100.00;101507.44;6264673;19;22213163;-67
2023/12/03 08:31:16;;;;;;;40.50;21.02;;;;;;;-2.44;100.00;101502.34;7399617;19;20015;-67
2023/12/03 08:33:47;;;;;;;38.55;20.25;;;;;;;-2.43;100.00;101506.69;7397951;19;20022;-67
2023/12/03 08:36:19;;;;;;;36.88;19.92;;;;;;;-2.43;100.00;101505.84;7400900;19;20086;-66
2023/12/03 08:38:48;;;;;;;32.65;19.10;;;;;;;-2.42;100.00;101508.47;7397402;19;20035;-67
2023/12/03 08:41:17;;;;;;;33.08;18.27;;;;;;;-2.39;100.00;101507.72;7400367;19;20018;-67
2023/12/03 08:43:45;;;;;;;33.45;18.27;;;;;;;-2.39;100.00;101502.56;7397069;19;20014;-67
2023/12/03 08:46:13;;;;;;;32.55;18.50;;;;;;;-2.35;100.00;101507.03;7397328;19;20018;-67
2023/12/03 08:48:42;;;;;;;39.70;20.98;;;;;;;-2.34;100.00;101506.22;7398977;19;20501;-66
2023/12/03 08:51:13;;;;;;;34.65;18.05;;;;;;;-2.31;100.00;101506.38;7399199;19;20428;-67
2023/12/03 08:53:41;;;;;;;39.60;18.92;;;;;;;-2.28;100.00;101511.63;7397530;19;20086;-67
2023/12/03 08:56:13;;;;;;;38.67;20.67;;;;;;;-2.25;100.00;101514.34;7399017;19;20014;-66
2023/12/03 08:58:42;;;;;;;35.90;18.70;;;;;;;-2.21;100.00;101513.66;7399608;19;20014;-66
2023/12/03 09:01:10;;;;;;;40.30;20.75;;;;;;;-2.18;100.00;101516.34;7398787;19;20417;-66
2023/12/03 09:03:40;;;;;;;40.05;20.60;;;;;;;-2.13;100.00;101521.69;7397347;19;20517;-67
2023/12/03 09:06:10;;;;;;;38.63;20.33;;;;;;;-2.09;100.00;101522.72;7398963;19;20017;-67
2023/12/03 09:08:41;;;;;;;39.35;19.63;;;;;;;-2.06;100.00;101526.28;7398454;19;20015;-67
2023/12/03 09:11:10;;;;;;;36.65;20.52;;;;;;;-2.00;100.00;101528.22;7396245;19;20488;-67
2023/12/03 09:13:38;;;;;;;41.20;20.13;;;;;;;-1.98;100.00;101518.91;7396890;19;20028;-66
2023/12/03 09:16:08;;;;;;;40.25;20.70;;;;;;;-1.96;100.00;101517.25;7398151;19;20011;-67
2023/12/03 09:18:38;;;;;;;36.90;19.90;;;;;;;-1.93;100.00;101512.25;7398687;19;20019;-68
2023/12/03 09:21:11;;;;;;;37.25;20.88;;;;;;;-1.90;100.00;101519.22;7396406;19;20074;-66
2023/12/03 09:23:42;;;;;;;38.63;20.97;;;;;;;-1.89;100.00;101527.00;7397606;19;20022;-66
2023/12/03 09:26:08;;;;;;;39.95;20.77;;;;;;;-1.88;100.00;101523.59;7397959;19;20014;-67
2023/12/03 09:28:43;;;;;;;39.97;21.90;;;;;;;-1.85;100.00;101528.00;7396863;19;20027;-66
2023/12/03 09:31:13;;;;;;;42.20;21.35;;;;;;;-1.82;100.00;101535.81;7398474;19;20019;-66
2023/12/03 09:33:41;;;;;;;40.97;20.92;;;;;;;-1.81;100.00;101530.78;7396390;19;20018;-67
2023/12/03 09:36:11;;;;;;;44.67;24.13;;;;;;;-1.77;100.00;101525.75;7396484;19;20022;-67
2023/12/03 09:38:42;;;;;;;41.63;22.73;;;;;;;-1.77;100.00;101526.59;7397312;19;20033;-67
2023/12/03 09:41:14;;;;;;;41.42;22.33;;;;;;;-1.74;100.00;101528.47;7397148;19;20481;-66
2023/12/03 09:43:47;;;;;;;43.28;22.88;;;;;;;-1.75;100.00;101529.25;7395636;19;20078;-66
2023/12/03 09:46:16;;;;;;;44.85;24.17;;;;;;;-1.74;100.00;101531.03;7397174;19;20477;-66
2023/12/03 09:48:52;;;;;;;47.17;24.73;;;;;;;-1.75;100.00;101531.84;7397205;19;20014;-66
2023/12/03 09:51:28;;;;;;;49.63;26.10;;;;;;;-1.74;100.00;101536.19;7397598;19;20018;-66
2023/12/03 09:54:01;;;;;;;42.63;22.73;;;;;;;-1.73;100.00;101527.63;7395094;19;20095;-66
2023/12/03 09:56:32;;;;;;;42.85;23.35;;;;;;;-1.71;100.00;101528.56;7397461;19;20014;-66
2023/12/03 09:59:01;;;;;;;41.45;22.23;;;;;;;-1.65;100.00;101539.13;7395520;19;20031;-67
2023/12/03 10:01:31;;;;;;;42.22;22.95;;;;;;;-1.59;100.00;101535.91;7397210;19;20019;-66
2023/12/03 10:04:00;;;;;;;41.92;23.08;;;;;;;-1.55;100.00;101532.66;7396070;19;20018;-67
2023/12/03 10:06:29;;;;;;;44.42;22.70;;;;;;;-1.51;100.00;101534.53;7397095;19;20428;-67
2023/12/03 10:09:00;;;;;;;46.25;23.20;;;;;;;-1.46;100.00;101532.16;7396609;19;20031;-67
2023/12/03 10:11:33;;;;;;;41.25;22.48;;;;;;;-1.45;100.00;101534.78;7395376;19;20018;-67
2023/12/03 10:14:01;;;;;;;46.45;24.70;;;;;;;-1.38;100.00;101539.38;7394778;19;20018;-66
2023/12/03 10:16:30;;;;;;;45.28;23.48;;;;;;;-1.34;100.00;101537.75;7394784;19;20015;-67
2023/12/03 10:18:58;;;;;;;41.42;21.90;;;;;;;-1.30;100.00;101544.81;7396253;19;20010;-67
2023/12/03 10:21:27;;;;;;;48.28;24.63;;;;;;;-1.26;100.00;101549.25;7396121;19;20006;-66
2023/12/03 10:24:04;;;;;;;48.58;24.27;;;;;;;-1.26;100.00;101549.25;7394802;19;20381;-67
2023/12/03 10:26:33;;;;;;;44.33;21.92;;;;;;;-1.24;100.00;101550.22;7396701;19;20015;-67
2023/12/03 10:29:02;;;;;;;44.90;23.33;;;;;;;-1.23;100.00;101549.38;7394502;19;20011;-67
2023/12/03 10:31:32;;;;;;;44.03;23.25;;;;;;;-1.23;100.00;101556.22;7396054;19;20015;-67
2023/12/03 10:34:00;;;;;;;46.45;24.38;;;;;;;-1.26;100.00;101554.41;7394992;19;20007;-67
2023/12/03 10:36:32;;;;;;;41.80;22.63;;;;;;;-1.27;100.00;101549.22;7395724;19;20473;-67
2023/12/03 10:39:09;;;;;;;42.08;22.55;;;;;;;-1.30;100.00;101549.97;7395726;19;20501;-67
2023/12/03 10:41:38;;;;;;;42.22;21.33;;;;;;;-1.32;98.59;101559.31;7396391;19;20015;-67
2023/12/03 10:44:06;;;;;;;39.22;20.25;;;;;;;-1.34;98.76;101560.94;7394639;19;20014;-66
2023/12/03 10:46:35;;;;;;;37.25;20.23;;;;;;;-1.35;99.28;101566.94;7395617;19;20044;-67
2023/12/03 10:49:03;;;;;;;38.40;19.70;;;;;;;-1.36;99.36;101560.88;7393182;19;20086;-68
2023/12/03 10:51:35;;;;;;;37.13;21.23;;;;;;;-1.35;99.96;101561.78;7395074;19;20015;-67
2023/12/03 10:54:07;;;;;;;39.65;22.05;;;;;;;-1.34;100.00;101564.41;7394315;19;20019;-67
2023/12/03 10:56:36;;;;;;;45.38;22.30;;;;;;;-1.29;100.00;101554.28;7395183;19;20509;-67
2023/12/03 10:59:07;;;;;;;39.25;21.27;;;;;;;-1.26;100.00;101559.56;7395434;19;20082;-67
2023/12/03 11:01:39;;;;;;;39.00;20.77;;;;;;;-1.26;96.13;101558.66;7395771;19;20085;-67
2023/12/03 11:04:23;;;;;;;37.58;19.80;;;;;;;-1.31;96.45;101566.22;7393986;19;20021;-68
2023/12/03 11:06:53;;;;;;;40.25;20.83;;;;;;;-1.31;97.98;101572.25;7395550;19;20035;-68
2023/12/03 11:09:26;;;;;;;35.20;19.25;;;;;;;-1.28;98.87;101574.06;7395535;19;20014;-67
2023/12/03 11:11:56;;;;;;;39.50;21.63;;;;;;;-1.27;98.10;101573.25;7395561;19;20022;-68